Boulder City, Nevada Weather observations

Data are for observation ending at time listed.
 Day   Time    Ave.   Ave.  Ave.  Vector   Max.   Stn.    Total    Solar   Ave.  
  of    of     Air    Rel.  Wind   Wind    Wind   Baro.  Precip.   Rad.    Soil  
Year   Day     Temp.  Hum.  Speed  Dir.    Gust   Pres.                    Temp. 
2016   (PST)    F      %     mph   deg.    mph     mb.     in.     W/m2     F   
------------------------------------------------------------------------------
 336   16:20   50.5    30    1.4    11      2.6   928.9    0.00      15    55.1
 336   16:30   49.5    31    1.3   353      2.3   928.7    0.00       5    55.1
 336   16:40   48.7    32    0.8   355      2.0   928.6    0.00       2    55.0
 336   16:50   48.0    32    0.1    58      0.8   928.6    0.00       0    55.0
 336   17:00   47.5    32    0.3   239      2.0   928.5    0.00       0    54.9
 336   17:10   47.1    32    1.1   237      2.4   928.5    0.00       0    54.9
 336   17:20   46.3    33    0.7   231      1.6   928.5    0.00       0    54.8
 336   17:30   45.9    33    0.1   261      0.9   928.4    0.00       0    54.7
 336   17:40   45.9    33    0.1   230      0.8   928.4    0.00       0    54.6
 336   17:50   46.2    32    0.6   200      1.9   928.4    0.00       0    54.6
 336   18:00   46.5    32    1.4   217      2.2   928.5    0.00       0    54.5
 336   18:10   46.4    33    2.0   224      2.9   928.5    0.00       0    54.4
 336   18:20   46.5    32    2.5   231      3.4   928.6    0.00       0    54.3
 336   18:30   46.5    32    2.2   225      3.3   928.7    0.00       0    54.2
 336   18:40   46.3    33    2.7   226      3.3   928.7    0.00       0    54.1
 336   18:50   46.4    32    2.4   235      3.1   928.7    0.00       0    54.0
 336   19:00   46.5    32    2.8   222      3.6   928.8    0.00       0    53.9
 336   19:10   45.8    33    1.6   222      2.5   928.8    0.00       0    53.8
 336   19:20   44.7    34    2.4   222      3.2   928.9    0.00       0    53.7
 336   19:30   45.8    33    2.1   220      2.9   929.0    0.00       0    53.6
 336   19:40   46.6    32    2.0   228      2.6   929.0    0.00       0    53.5
 336   19:50   46.6    32    0.7   241      1.4   929.1    0.00       0    53.4
 336   20:00   46.3    33    1.5   219      2.4   929.1    0.00       0    53.3
 336   20:10   46.1    33    2.1   227      2.6   929.0    0.00       0    53.3
 336   20:20   46.1    33    1.2   238      2.6   929.1    0.00       0    53.2
 336   20:30   46.1    33    1.3   268      2.3   929.0    0.00       0    53.1
 336   20:40   47.9    31    1.3   338      5.3   929.0    0.00       0    53.1
 336   20:50   50.1    29    1.9    12      4.6   929.2    0.00       0    53.0
 336   21:00   48.7    34    2.0     9      4.4   929.4    0.00       0    53.0
 336   21:10   47.8    38    1.6     3      3.0   929.5    0.00       0    53.0
 336   21:20   47.4    38    2.4     8      3.9   929.5    0.00       0    52.9
 336   21:30   47.0    38    1.5   346      2.9   929.5    0.00       0    52.9
 336   21:40   46.8    39    2.2    15      3.7   929.6    0.00       0    52.9
 336   21:50   47.5    36    4.4   360      9.2   929.7    0.00       0    52.8
 336   22:00   49.4    31    6.8     4     12.1   929.7    0.00       0    52.8
 336   22:10   49.5    32    5.8     4     11.1   929.9    0.00       0    52.8
 336   22:20   49.4    33    5.7     1     12.8   930.0    0.00       0    52.7
 336   22:30   49.4    32    5.5     2     12.3   930.1    0.00       0    52.7
 336   22:40   49.4    31    5.1   355     11.8   930.1    0.00       0    52.7
 336   22:50   49.4    31    5.2   359     10.7   930.2    0.00       0    52.7
 336   23:00   49.4    31    5.4   360     10.7   930.2    0.00       0    52.7
 336   23:10   49.6    29    5.7    11     11.6   930.2    0.00       0    52.7
 336   23:20   49.7    29    4.8   358     10.6   930.2    0.00       0    52.7
 336   23:30   49.6    29    4.7   360      9.3   930.2    0.00       0    52.6
 336   23:40   49.5    30    5.3   359     14.2   930.2    0.00       0    52.6
 336   23:50   49.5    29    6.6    12     12.4   930.2    0.00       0    52.6
 337    0:00   49.4    29    7.5    12     17.2   930.2    0.00       0    52.6
 337    0:10   49.4    29    5.8     0     14.2   930.2    0.00       0    52.6
 337    0:20   49.3    29    5.8   358     12.0   930.2    0.00       0    52.6
 337    0:30   49.2    30    6.1     1     13.8   930.2    0.00       0    52.6
 337    0:40   49.2    30    7.1     6     17.8   930.2    0.00       0    52.6
 337    0:50   49.1    30    8.0    10     15.0   930.1    0.00       0    52.7
 337    1:00   48.8    31    6.6   351     16.9   930.2    0.00       0    52.7
 337    1:10   48.8    31    7.6   356     20.5   930.2    0.00       0    52.7
 337    1:20   48.5    32    4.5   356      8.8   930.2    0.00       0    52.7
 337    1:30   48.2    32    4.9   349      9.2   930.3    0.00       0    52.7
 337    1:40   48.0    32    6.8   350     16.2   930.3    0.00       0    52.7
 337    1:50   47.7    32    4.2   346     10.1   930.3    0.00       0    52.6
 337    2:00   47.4    32    5.1   344     12.0   930.3    0.00       0    52.6
 337    2:10   47.1    32    6.6   347     14.6   930.2    0.00       0    52.6
 337    2:20   46.9    32    5.1   343     10.8   930.2    0.00       0    52.6
 337    2:30   46.7    32    6.8   344     12.8   930.1    0.00       0    52.6
 337    2:40   46.5    32    6.1   348     13.8   930.0    0.00       0    52.6
 337    2:50   46.2    32    5.4   351     16.7   930.0    0.00       0    52.6
 337    3:00   46.0    33    5.0   352     11.2   929.9    0.00       0    52.6
 337    3:10   46.0    33    5.9   355     14.5   929.8    0.00       0    52.6
 337    3:20   45.8    33    6.1   359     12.5   929.8    0.00       0    52.5
 337    3:30   45.7    33    6.0   349     12.5   929.8    0.00       0    52.5
 337    3:40   45.5    34    4.5   355     11.1   929.8    0.00       0    52.5
 337    3:50   45.4    33    5.5   351     16.8   929.8    0.00       0    52.4
 337    4:00   45.1    34    5.0   350     11.0   929.9    0.00       0    52.4
 337    4:10   44.8    34    4.0   346     10.5   930.0    0.00       0    52.4
 337    4:20   44.6    34    5.0   352      9.6   930.0    0.00       0    52.3
 337    4:30   44.6    34    5.3   346     11.2   930.0    0.00       0    52.3
 337    4:40   44.3    34    5.1   347     11.3   930.1    0.00       0    52.2
 337    4:50   44.4    34    7.0   345     13.3   930.2    0.00       0    52.2
 337    5:00   44.4    34    7.5   342     16.5   930.4    0.00       0    52.2
 337    5:10   44.5    34    8.1   343     17.5   930.6    0.00       0    52.1
 337    5:20   44.4    34    8.6   346     16.6   930.7    0.00       0    52.1
 337    5:30   44.3    34    7.8   346     14.3   930.9    0.00       0    52.0
 337    5:40   44.1    34    7.4   343     14.0   931.0    0.00       0    52.0
 337    5:50   44.0    34    7.5   349     14.7   931.1    0.00       0    51.9
 337    6:00   43.9    34    7.0   344     17.3   931.2    0.00       0    51.9
 337    6:10   43.8    34    6.3   341     12.1   931.3    0.00       0    51.9
 337    6:20   43.7    34    4.7   339      9.4   931.4    0.00       0    51.8
 337    6:30   43.5    34    5.8   336     12.0   931.5    0.00       0    51.8
 337    6:40   43.7    33    6.0   335     12.5   931.6    0.00       4    51.7
 337    6:50   43.7    33    5.8   337     13.2   931.8    0.00       7    51.7
 337    7:00   43.7    33    5.2   334     12.3   932.0    0.00      12    51.7
 337    7:10   43.7    32    5.6   336     12.1   932.1    0.00      19    51.6
 337    7:20   43.7    32    6.5   337     11.7   932.2    0.00      21    51.6
 337    7:30   44.1    31    6.8   338     13.3   932.4    0.00      25    51.5
 337    7:40   44.6    31    8.4   339     15.6   932.5    0.00      98    51.5
 337    7:50   45.0    30    7.1   338     15.3   932.7    0.00     111    51.5
 337    8:00   45.4    30    7.0   344     13.7   932.9    0.00      34    51.4
 337    8:10   45.8    29    7.0   341     13.6   933.0    0.00      38    51.4
 337    8:20   46.1    28    7.4   336     13.6   933.1    0.00     257    51.4
 337    8:30   46.6    28    6.3   343     14.4   933.3    0.00     126    51.4
 337    8:40   46.8    28    8.0   344     17.5   933.5    0.00     282    51.3
 337    8:50   47.0    27    8.2   347     19.7   933.7    0.00      58    51.3
 337    9:00   47.2    27    8.7   348     17.3   933.8    0.00     365    51.3
 337    9:10   47.3    27    9.4   346     16.7   934.0    0.00     410    51.3
 337    9:20   47.5    26    9.5   347     17.8   934.1    0.00     432    51.3
 337    9:30   47.8    26    9.0   343     15.1   934.2    0.00     453    51.3
 337    9:40   47.9    26    9.3   346     17.2   934.3    0.00     472    51.3
 337    9:50   48.2    25    9.4   346     18.2   934.3    0.00     490    51.3
 337   10:00   48.5    25    9.0   345     21.9   934.3    0.00     506    51.3
 337   10:10   49.1    24    8.5   342     18.2   934.4    0.00     520    51.4
 337   10:20   49.0    24    8.4   347     20.5   934.4    0.00     532    51.4
 337   10:30   49.9    24    7.1   344     17.4   934.5    0.00     544    51.4
 337   10:40   50.4    24    6.9   348     19.7   934.6    0.00     555    51.5
 337   10:50   49.7    24    9.3   344     16.8   934.5    0.00     562    51.5
 337   11:00   49.9    24    7.7   342     21.5   934.4    0.00     568    51.6
 337   11:10   51.0    23    7.2    13     16.3   934.1    0.00     573    51.6
 337   11:20   50.6    23    9.8    15     20.2   934.0    0.00     575    51.7
 337   11:30   51.4    23    6.4   353     14.9   934.1    0.00     579    51.8
 337   11:40   51.4    23    6.7   343     17.0   934.1    0.00     580    51.9
 337   11:50   51.9    23    6.4   351     14.9   934.0    0.00     577    52.1
 337   12:00   52.0    23    7.7     4     19.2   933.9    0.00     570    52.3
 337   12:10   51.5    23    9.5    10     20.5   933.7    0.00     564    52.5
 337   12:20   51.9    23    8.8     6     20.1   933.7    0.00     557    52.7
 337   12:30   51.9    23    9.0    12     18.1   933.5    0.00     548    52.9
 337   12:40   52.6    22    6.3   350     14.1   933.6    0.00     536    53.2
 337   12:50   52.6    22    7.2   351     15.4   933.5    0.00     525    53.4
 337   13:00   52.5    22    8.1     3     16.9   933.6    0.00     512    53.6
 337   13:10   52.3    23    9.6    13     17.2   933.7    0.00     496    53.9
 337   13:20   52.5    22    9.1    15     17.3   933.7    0.00     479    54.0
 337   13:30   52.4    23    9.5    12     17.4   933.7    0.00     458    54.3
 337   13:40   52.4    23    8.5    20     18.7   933.7    0.00     437    54.5
 337   13:50   52.7    22    9.4     9     17.5   933.5    0.00     416    54.7
 337   14:00   52.8    22    7.3    11     15.7   933.4    0.00     393    54.8
 337   14:10   53.0    22    6.6   355     13.1   933.5    0.00     369    55.0
 337   14:20   53.2    22    7.0     3     19.5   933.5    0.00     341    55.0
 337   14:30   53.0    22    8.8    10     20.8   933.5    0.00     316    55.1
 337   14:40   52.6    22    9.6    10     20.6   933.6    0.00     289    55.2
 337   14:50   52.4    22    9.7     7     21.0   933.6    0.00     262    55.2
 337   15:00   52.5    22    9.6     7     17.9   933.6    0.00     234    55.2
 337   15:10   52.5    22    8.7     6     16.1   933.6    0.00     206    55.2
 337   15:20   52.4    22    8.3     7     16.5   933.6    0.00     178    55.2
 337   15:30   52.3    21    8.3     8     16.6   933.6    0.00     149    55.2
 337   15:40   52.1    21    8.7    11     16.7   933.7    0.00     115    55.2
 337   15:50   51.9    21    8.8    11     18.8   933.7    0.00      78    55.1
 337   16:00   51.5    21    8.5     7     21.2   933.8    0.00      43    55.1
 337   16:10   50.8    22    8.2    14     14.8   933.9    0.00      14    55.1

Return to Boulder City, Nevada graphs page.


Western Regional Climate Center,wrcc@dri.edu